createdAt,value
2023-03-20T00:01:30.267Z,64.38
2023-03-20T00:03:58.151Z,64.31
2023-03-20T00:06:27.575Z,63.92
2023-03-20T00:08:55.676Z,63.38
2023-03-20T00:11:33.730Z,63.13
2023-03-20T00:14:04.433Z,62.45
2023-03-20T00:16:37.445Z,63.17
2023-03-20T00:19:06.405Z,64.09
2023-03-20T00:21:34.399Z,64.70
2023-03-20T00:24:02.347Z,65.60
2023-03-20T00:26:34.228Z,65.89
2023-03-20T00:29:04.238Z,66.99
2023-03-20T00:31:40.156Z,67.71
2023-03-20T00:34:13.551Z,67.53
2023-03-20T00:36:41.113Z,67.63
2023-03-20T00:39:08.831Z,68.15
2023-03-20T00:41:38.815Z,68.99
2023-03-20T00:44:27.561Z,70.40
2023-03-20T00:46:57.434Z,71.52
2023-03-20T00:49:31.264Z,70.05
2023-03-20T00:51:58.596Z,68.77
2023-03-20T00:54:28.797Z,67.95
2023-03-20T01:02:35.688Z,70.07
2023-03-20T01:05:04.611Z,71.52
2023-03-20T01:07:32.640Z,72.82
2023-03-20T01:10:05.731Z,73.58
2023-03-20T01:12:34.238Z,72.42
2023-03-20T01:15:01.951Z,72.50
2023-03-20T01:17:30.219Z,73.02
2023-03-20T01:20:05.275Z,71.76
2023-03-20T01:22:40.172Z,72.71
2023-03-20T01:25:12.050Z,73.12
2023-03-20T01:27:41.728Z,74.07
2023-03-20T01:30:35.652Z,72.80
2023-03-20T01:33:27.066Z,70.94
2023-03-20T01:35:55.262Z,69.90
2023-03-20T01:38:27.524Z,70.35
2023-03-20T01:41:04.057Z,72.15
2023-03-20T01:43:35.106Z,73.00
2023-03-20T01:46:15.048Z,72.83
2023-03-20T01:48:51.403Z,72.68
2023-03-20T01:51:27.076Z,73.25
2023-03-20T01:54:09.582Z,72.70
2023-03-20T01:57:08.092Z,74.19
2023-03-20T01:59:47.149Z,74.91
2023-03-20T02:02:19.154Z,75.44
2023-03-20T02:04:54.360Z,74.82
2023-03-20T02:07:23.753Z,76.06
2023-03-20T02:09:54.090Z,77.30
2023-03-20T02:12:22.837Z,78.45
2023-03-20T02:15:04.095Z,79.25
2023-03-20T02:17:31.726Z,79.06
2023-03-20T02:20:08.196Z,79.28
2023-03-20T02:22:55.511Z,76.95
2023-03-20T02:25:41.796Z,75.15
2023-03-20T02:28:29.564Z,74.92
2023-03-20T02:31:28.464Z,76.75
2023-03-20T02:34:17.593Z,79.70
2023-03-20T02:37:16.384Z,78.93
2023-03-20T02:40:02.234Z,80.96
2023-03-20T02:42:48.498Z,81.76
2023-03-20T02:45:54.324Z,83.53
2023-03-20T02:48:53.764Z,83.37
2023-03-20T02:51:33.990Z,83.83
2023-03-20T02:54:11.163Z,83.81
2023-03-20T02:56:51.763Z,83.56
2023-03-20T02:59:58.141Z,84.08
2023-03-20T03:02:39.474Z,84.99
2023-03-20T03:05:34.411Z,82.71
2023-03-20T03:08:05.953Z,81.52
2023-03-20T03:10:38.862Z,80.52
2023-03-20T03:13:11.518Z,79.76
2023-03-20T03:15:46.770Z,79.31
2023-03-20T03:18:19.942Z,78.05
2023-03-20T03:20:50.831Z,77.25
2023-03-20T03:23:32.608Z,76.92
2023-03-20T03:26:05.268Z,77.25
2023-03-20T03:28:41.309Z,78.85
2023-03-20T03:31:18.230Z,78.40
2023-03-20T03:33:48.809Z,77.85
2023-03-20T03:36:35.953Z,77.19
2023-03-20T03:39:12.875Z,77.99
2023-03-20T03:41:51.648Z,75.48
2023-03-20T03:44:30.730Z,74.90
2023-03-20T03:47:20.256Z,75.22
2023-03-20T03:49:56.331Z,75.19
2023-03-20T03:52:32.028Z,77.53
2023-03-20T03:55:18.572Z,76.37
2023-03-20T03:57:54.399Z,77.66
2023-03-20T04:00:24.581Z,79.06
2023-03-20T04:02:56.842Z,80.27
2023-03-20T04:05:28.120Z,79.72
2023-03-20T04:07:59.295Z,80.15
2023-03-20T04:10:26.720Z,83.32
2023-03-20T04:12:53.979Z,85.83
2023-03-20T04:15:22.615Z,84.61
2023-03-20T04:17:52.487Z,84.62
2023-03-20T04:20:20.202Z,83.19
2023-03-20T04:22:53.443Z,83.39
2023-03-20T04:25:29.063Z,84.14
2023-03-20T04:27:57.028Z,83.46
2023-03-20T04:30:26.436Z,81.98
2023-03-20T04:32:53.672Z,81.81
2023-03-20T04:35:24.432Z,83.85
2023-03-20T04:37:54.522Z,84.21
2023-03-20T04:40:24.059Z,85.01
2023-03-20T04:42:51.571Z,85.85
2023-03-20T04:45:18.585Z,85.34
2023-03-20T04:47:46.083Z,85.66
2023-03-20T04:50:14.476Z,83.67
2023-03-20T04:52:41.412Z,82.85
2023-03-20T04:55:08.615Z,83.54
2023-03-20T04:57:35.512Z,82.61
2023-03-20T05:00:02.270Z,83.33
2023-03-20T05:02:29.003Z,84.02
2023-03-20T05:04:56.283Z,84.53
2023-03-20T05:07:23.035Z,83.69
2023-03-20T05:09:52.337Z,82.51
2023-03-20T05:12:19.303Z,84.14
2023-03-20T05:14:45.965Z,84.76
2023-03-20T05:17:13.010Z,85.14
2023-03-20T05:19:39.901Z,84.80
2023-03-20T05:22:06.648Z,85.80
2023-03-20T05:24:33.601Z,85.43
2023-03-20T05:27:00.842Z,83.02
2023-03-20T05:29:27.811Z,77.15
2023-03-20T05:31:57.575Z,76.95
2023-03-20T05:34:24.917Z,74.08
2023-03-20T05:36:51.672Z,71.36
2023-03-20T05:39:18.540Z,70.28
2023-03-20T05:41:46.001Z,69.89
2023-03-20T05:44:12.719Z,70.21
2023-03-20T05:46:39.584Z,69.44
2023-03-20T05:49:06.719Z,68.44
2023-03-20T05:51:33.653Z,67.24
2023-03-20T05:54:00.810Z,67.10
2023-03-20T05:56:27.769Z,65.47
2023-03-20T05:58:54.519Z,64.16
2023-03-20T06:01:24.119Z,61.68
2023-03-20T06:03:51.367Z,62.79
2023-03-20T06:06:18.328Z,63.17
2023-03-20T06:08:48.189Z,61.69
2023-03-20T06:11:16.183Z,63.97
2023-03-20T06:13:42.989Z,78.55
2023-03-20T06:16:10.688Z,69.83
2023-03-20T06:18:39.387Z,59.10
2023-03-20T06:21:06.315Z,58.49
2023-03-20T06:23:33.265Z,58.84
2023-03-20T06:26:00.441Z,62.70
2023-03-20T06:28:27.420Z,63.80
2023-03-20T06:30:54.672Z,62.68
2023-03-20T06:33:22.260Z,61.58
2023-03-20T06:35:49.361Z,60.93
2023-03-20T06:38:16.841Z,60.85
2023-03-20T06:40:45.391Z,62.53
2023-03-20T06:43:12.602Z,62.68
2023-03-20T06:45:39.889Z,63.54
2023-03-20T06:48:11.592Z,58.76
2023-03-20T06:50:38.407Z,57.14
2023-03-20T06:53:05.293Z,60.32
2023-03-20T06:55:32.020Z,59.61
2023-03-20T06:57:58.700Z,59.75
2023-03-20T07:00:26.035Z,58.61
2023-03-20T07:02:53.227Z,60.20
2023-03-20T07:05:20.104Z,59.18
2023-03-20T07:07:47.118Z,56.18
2023-03-20T07:10:13.954Z,58.11
2023-03-20T07:12:40.677Z,59.69
2023-03-20T07:15:10.186Z,55.47
2023-03-20T07:17:37.574Z,54.43
2023-03-20T07:20:05.190Z,57.39
2023-03-20T07:22:31.983Z,58.52
2023-03-20T07:24:58.927Z,58.23
2023-03-20T07:27:26.391Z,54.50
2023-03-20T07:29:53.360Z,55.68
2023-03-20T07:32:24.039Z,56.69
2023-03-20T07:34:53.879Z,54.94
2023-03-20T07:37:20.732Z,53.72
2023-03-20T07:39:47.780Z,52.51
2023-03-20T07:42:14.581Z,51.50
2023-03-20T07:44:41.397Z,51.10
2023-03-20T07:47:08.923Z,52.43
2023-03-20T07:49:35.702Z,52.28
2023-03-20T07:52:02.810Z,51.52
2023-03-20T07:54:29.782Z,52.78
2023-03-20T07:56:56.762Z,51.00
2023-03-20T07:59:23.693Z,49.39
2023-03-20T08:01:50.516Z,49.50
2023-03-20T08:04:19.768Z,50.12
2023-03-20T08:06:46.985Z,47.91
2023-03-20T08:09:14.150Z,49.41
2023-03-20T08:11:40.969Z,52.20
2023-03-20T08:14:08.144Z,52.11
2023-03-20T08:16:35.201Z,49.37
2023-03-20T08:19:08.537Z,51.97
2023-03-20T08:21:36.105Z,51.23
2023-03-20T08:24:03.002Z,50.80
2023-03-20T08:26:42.112Z,49.88
2023-03-20T08:29:09.107Z,49.72
2023-03-20T08:31:40.227Z,48.35
2023-03-20T08:34:08.041Z,50.01
2023-03-20T08:36:34.948Z,49.02
2023-03-20T08:39:01.762Z,48.45
2023-03-20T08:41:28.911Z,49.46
2023-03-20T08:43:57.100Z,47.87
2023-03-20T08:46:23.864Z,46.76
2023-03-20T08:48:51.940Z,47.07
2023-03-20T08:51:18.819Z,47.23
2023-03-20T08:53:45.667Z,46.56
2023-03-20T08:56:13.520Z,46.79
2023-03-20T08:58:40.504Z,45.97
2023-03-20T09:01:09.275Z,45.53
2023-03-20T09:03:37.157Z,44.67
2023-03-20T09:06:10.960Z,44.27
2023-03-20T09:08:38.118Z,42.44
2023-03-20T09:11:05.875Z,43.70
2023-03-20T09:13:33.046Z,44.25
2023-03-20T09:16:00.531Z,43.21
2023-03-20T09:18:30.723Z,43.33
2023-03-20T09:20:57.708Z,42.10
2023-03-20T09:23:24.756Z,43.95
2023-03-20T09:25:51.584Z,43.21
2023-03-20T09:28:18.565Z,41.20
2023-03-20T09:30:46.454Z,42.06
2023-03-20T09:33:15.019Z,41.69
2023-03-20T09:35:43.676Z,40.92
2023-03-20T09:38:12.778Z,40.72
2023-03-20T09:40:57.022Z,42.02
2023-03-20T09:43:29.704Z,39.66
2023-03-20T09:46:33.415Z,40.07
2023-03-20T09:49:31.090Z,40.67
2023-03-20T09:52:06.753Z,39.34
2023-03-20T09:54:54.408Z,38.92
2023-03-20T09:57:34.816Z,39.94
2023-03-20T10:00:07.527Z,38.73
2023-03-20T10:02:54.516Z,39.68
2023-03-20T10:05:46.843Z,39.27
2023-03-20T10:08:21.088Z,36.72
2023-03-20T10:10:52.503Z,37.19
2023-03-20T10:13:37.732Z,37.35
2023-03-20T10:16:28.018Z,36.12
2023-03-20T10:19:18.526Z,35.70
2023-03-20T10:21:50.387Z,36.11
2023-03-20T10:24:20.077Z,37.46
2023-03-20T10:26:51.383Z,36.25
2023-03-20T10:29:38.340Z,34.58
2023-03-20T10:32:30.082Z,34.72
2023-03-20T10:35:21.705Z,34.87
2023-03-20T10:38:04.446Z,35.56
2023-03-20T10:40:36.393Z,35.68
2023-03-20T10:43:25.204Z,33.61
2023-03-20T10:46:08.188Z,33.50
2023-03-20T10:48:44.287Z,32.60
2023-03-20T10:51:21.410Z,32.39
2023-03-20T10:53:57.199Z,32.42
2023-03-20T10:56:45.220Z,33.57
2023-03-20T10:59:25.459Z,32.68
2023-03-20T11:01:52.424Z,31.46
2023-03-20T11:04:19.875Z,31.35
2023-03-20T11:06:53.521Z,31.38
2023-03-20T11:09:23.175Z,31.73
2023-03-20T11:11:55.719Z,30.33
2023-03-20T11:14:28.237Z,30.80
2023-03-20T11:17:00.864Z,30.80
2023-03-20T11:19:27.813Z,31.60
2023-03-20T11:22:00.432Z,30.76
2023-03-20T11:24:47.643Z,30.82
2023-03-20T11:27:40.803Z,31.26
2023-03-20T11:30:17.666Z,31.26
2023-03-20T11:32:56.447Z,31.48
2023-03-20T11:35:26.483Z,31.48
2023-03-20T11:38:08.802Z,29.58
2023-03-20T11:40:42.142Z,31.49
2023-03-20T11:43:36.945Z,31.61
2023-03-20T11:46:14.251Z,32.04
2023-03-20T11:48:45.800Z,30.05
2023-03-20T11:51:23.207Z,30.97
2023-03-20T11:53:50.424Z,30.25
2023-03-20T11:56:26.598Z,29.30
2023-03-20T11:58:58.605Z,27.07
2023-03-20T12:01:30.099Z,27.28
2023-03-20T12:04:16.489Z,28.33
2023-03-20T12:06:46.755Z,28.18
2023-03-20T12:09:32.226Z,28.24
2023-03-20T12:12:08.963Z,28.33
2023-03-20T12:15:06.035Z,27.62
2023-03-20T12:17:41.530Z,27.49
2023-03-20T12:20:53.784Z,27.11
2023-03-20T12:23:46.055Z,26.79
2023-03-20T12:26:22.929Z,28.29
2023-03-20T12:28:52.606Z,28.03
2023-03-20T12:31:51.829Z,28.28
2023-03-20T12:34:33.297Z,28.00
2023-03-20T12:37:00.674Z,27.90
2023-03-20T12:39:34.723Z,27.55
2023-03-20T12:42:09.934Z,27.81
2023-03-20T12:44:39.880Z,27.24
2023-03-20T12:47:44.177Z,27.71
2023-03-20T12:50:34.408Z,27.14
2023-03-20T12:53:26.821Z,26.70
2023-03-20T12:56:22.437Z,27.47
2023-03-20T12:58:59.991Z,26.84
2023-03-20T13:01:32.216Z,26.21
2023-03-20T13:04:04.903Z,25.76
2023-03-20T13:06:38.163Z,25.76
2023-03-20T13:09:29.561Z,25.30
2023-03-20T13:12:24.816Z,25.79
2023-03-20T13:15:16.411Z,27.07
2023-03-20T13:17:54.491Z,26.58
2023-03-20T13:20:29.266Z,25.50
2023-03-20T13:23:30.226Z,24.71
2023-03-20T13:26:17.431Z,25.14
2023-03-20T13:29:02.790Z,24.82
2023-03-20T13:31:38.616Z,24.67
2023-03-20T13:34:32.147Z,24.18
2023-03-20T13:37:50.157Z,24.11
2023-03-20T13:40:29.717Z,25.21
2023-03-20T13:43:02.576Z,26.42
2023-03-20T13:45:31.907Z,25.63
2023-03-20T13:48:04.878Z,24.39
2023-03-20T13:50:41.836Z,24.30
2023-03-20T13:53:22.724Z,23.95
2023-03-20T13:56:08.948Z,24.83
2023-03-20T13:58:49.955Z,24.09
2023-03-20T14:01:41.905Z,24.36
2023-03-20T14:04:17.409Z,24.03
2023-03-20T14:06:49.988Z,23.93
2023-03-20T14:09:40.765Z,24.02
2023-03-20T14:12:13.531Z,23.99
2023-03-20T14:14:57.428Z,23.27
2023-03-20T14:17:32.872Z,23.21
2023-03-20T14:20:13.043Z,23.41
2023-03-20T14:22:42.973Z,24.05
2023-03-20T14:25:20.175Z,23.60
2023-03-20T14:28:07.529Z,23.48
2023-03-20T14:30:47.666Z,23.88
2023-03-20T14:33:17.810Z,24.30
2023-03-20T14:35:52.087Z,24.36
2023-03-20T14:38:53.344Z,24.13
2023-03-20T14:42:01.219Z,24.57
2023-03-20T14:44:48.238Z,24.82
2023-03-20T14:47:30.651Z,24.66
2023-03-20T14:50:20.481Z,24.57
2023-03-20T14:52:57.188Z,24.83
2023-03-20T14:55:30.524Z,26.41
2023-03-20T14:58:27.229Z,26.20
2023-03-20T15:00:54.223Z,26.77
2023-03-20T15:03:22.214Z,26.89
2023-03-20T15:06:00.788Z,27.69
2023-03-20T15:08:34.850Z,27.46
2023-03-20T15:11:08.739Z,27.61
2023-03-20T15:13:40.747Z,27.42
2023-03-20T15:16:11.294Z,27.96
2023-03-20T15:18:51.644Z,28.10
2023-03-20T15:21:28.765Z,28.52
2023-03-20T15:23:55.718Z,28.65
2023-03-20T15:26:25.270Z,29.33
2023-03-20T15:29:01.048Z,29.11
2023-03-20T15:31:33.060Z,29.17
2023-03-20T15:34:02.876Z,29.70
2023-03-20T15:36:34.884Z,30.16
2023-03-20T15:39:06.431Z,29.79
2023-03-20T15:41:35.454Z,30.06
2023-03-20T15:44:21.771Z,30.11
2023-03-20T15:46:57.191Z,30.75
2023-03-20T15:49:25.856Z,30.90
2023-03-20T15:51:54.733Z,31.28
2023-03-20T15:54:21.981Z,31.44
2023-03-20T15:56:52.135Z,31.45
2023-03-20T15:59:24.946Z,31.47
2023-03-20T16:01:56.413Z,31.57
2023-03-20T16:04:25.945Z,31.58
2023-03-20T16:06:58.665Z,32.30
2023-03-20T16:09:26.915Z,31.12
2023-03-20T16:12:03.273Z,31.60
2023-03-20T16:14:33.493Z,31.38
2023-03-20T16:17:05.614Z,31.90
2023-03-20T16:19:35.684Z,32.13
2023-03-20T16:22:12.832Z,32.23
2023-03-20T16:24:40.979Z,32.68
2023-03-20T16:27:11.289Z,32.51
2023-03-20T16:29:43.848Z,32.92
2023-03-20T16:32:33.472Z,32.89
2023-03-20T16:35:25.930Z,32.96
2023-03-20T16:37:58.196Z,33.16
2023-03-20T16:40:28.721Z,32.81
2023-03-20T16:42:57.321Z,33.19
2023-03-20T16:45:24.244Z,33.46
2023-03-20T16:47:51.467Z,33.82
2023-03-20T16:50:23.337Z,34.05
2023-03-20T16:52:58.805Z,34.32
2023-03-20T16:55:42.819Z,34.68
2023-03-20T16:58:15.348Z,35.27
2023-03-20T17:00:46.150Z,36.12
2023-03-20T17:03:19.010Z,37.13
2023-03-20T17:09:18.703Z,38.01
2023-03-20T17:12:22.779Z,38.35
2023-03-20T17:14:52.469Z,38.34
2023-03-20T17:17:22.522Z,38.59
2023-03-20T17:19:51.401Z,38.52
2023-03-20T17:25:02.055Z,40.20
2023-03-20T17:28:10.918Z,40.55
2023-03-20T17:30:38.968Z,40.99
2023-03-20T17:33:13.522Z,41.40
2023-03-20T17:35:40.902Z,41.64
2023-03-20T17:38:21.577Z,42.15
2023-03-20T17:40:52.198Z,42.26
2023-03-20T17:43:21.859Z,42.68
2023-03-20T17:45:49.413Z,42.48
2023-03-20T17:48:21.797Z,43.22
2023-03-20T17:50:53.000Z,42.63
2023-03-20T17:53:25.401Z,42.89
2023-03-20T17:55:53.274Z,42.73
2023-03-20T17:58:29.970Z,42.39
2023-03-20T18:00:57.070Z,42.55
2023-03-20T18:03:23.881Z,42.38
2023-03-20T18:05:51.700Z,42.52
2023-03-20T18:08:23.860Z,42.52
2023-03-20T18:10:53.023Z,42.10
2023-03-20T18:13:21.492Z,42.33
2023-03-20T18:15:52.658Z,42.23
2023-03-20T18:18:23.768Z,41.90
2023-03-20T18:20:52.395Z,42.60
2023-03-20T18:23:19.583Z,43.03
2023-03-20T18:25:46.523Z,42.82
2023-03-20T18:28:20.961Z,42.81
2023-03-20T18:30:49.110Z,42.48
2023-03-20T18:33:29.486Z,41.97
2023-03-20T18:36:02.924Z,42.46
2023-03-20T18:38:32.839Z,42.64
2023-03-20T18:41:01.352Z,43.15
2023-03-20T18:43:33.358Z,43.67
2023-03-20T18:46:02.350Z,43.22
2023-03-20T18:48:34.396Z,43.39
2023-03-20T18:51:11.166Z,43.22
2023-03-20T18:53:41.494Z,43.14
2023-03-20T18:56:23.589Z,43.23
2023-03-20T18:58:52.593Z,43.08
2023-03-20T19:01:21.136Z,42.75
2023-03-20T19:03:48.232Z,42.75
2023-03-20T19:06:21.493Z,43.22
2023-03-20T19:08:49.944Z,43.73
2023-03-20T19:11:21.209Z,43.03
2023-03-20T19:13:52.824Z,43.21
2023-03-20T19:16:19.613Z,43.05
2023-03-20T19:18:46.813Z,42.75
2023-03-20T19:21:18.344Z,43.63
2023-03-20T19:23:45.507Z,43.97
2023-03-20T19:26:17.861Z,43.87
2023-03-20T19:28:46.543Z,43.87
2023-03-20T19:31:13.414Z,43.81
2023-03-20T19:33:41.081Z,43.65
2023-03-20T19:36:19.947Z,43.71
2023-03-20T19:38:46.583Z,43.76
2023-03-20T19:41:14.989Z,43.95
2023-03-20T19:43:52.075Z,44.07
2023-03-20T19:46:38.761Z,44.82
2023-03-20T19:49:06.954Z,44.46
2023-03-20T19:51:33.949Z,44.64
2023-03-20T19:54:00.758Z,44.80
2023-03-20T19:56:28.112Z,44.17
2023-03-20T19:58:55.031Z,45.00
2023-03-20T20:01:25.284Z,44.53
2023-03-20T20:03:58.051Z,44.22
2023-03-20T20:06:31.225Z,44.37
2023-03-20T20:08:59.782Z,44.27
2023-03-20T20:11:26.748Z,45.03
2023-03-20T20:14:10.336Z,45.08
2023-03-20T20:16:43.269Z,45.15
2023-03-20T20:19:10.799Z,45.12
2023-03-20T20:25:22.643Z,44.59
2023-03-20T20:27:49.741Z,44.90
2023-03-20T20:30:19.225Z,45.47
2023-03-20T20:32:46.819Z,46.19
2023-03-20T20:35:41.925Z,45.81
2023-03-20T20:38:37.145Z,46.03
2023-03-20T20:40:50.129Z,46.22
2023-03-20T20:43:39.248Z,45.95
2023-03-20T20:46:04.393Z,45.92
2023-03-20T20:48:31.970Z,45.84
2023-03-20T20:51:02.342Z,45.73
2023-03-20T20:53:29.226Z,46.29
2023-03-20T20:55:57.328Z,46.08
2023-03-20T20:59:04.064Z,46.27
2023-03-20T21:01:34.568Z,46.20
2023-03-20T21:04:02.464Z,46.43
2023-03-20T21:07:03.505Z,45.88
2023-03-20T21:09:18.170Z,46.64
2023-03-20T21:11:47.563Z,46.53
2023-03-20T21:14:15.237Z,46.38
2023-03-20T21:16:42.378Z,46.73
2023-03-20T21:19:12.117Z,47.17
2023-03-20T21:21:41.050Z,47.40
2023-03-20T21:24:30.435Z,47.47
2023-03-20T21:26:59.090Z,47.59
2023-03-20T21:29:27.107Z,47.20
2023-03-20T21:31:54.205Z,47.06
2023-03-20T21:34:22.315Z,47.25
2023-03-20T21:36:51.642Z,47.65
2023-03-20T21:39:26.054Z,47.88
2023-03-20T21:41:54.357Z,47.95
2023-03-20T21:44:58.023Z,47.69
2023-03-20T21:47:58.568Z,47.19
2023-03-20T21:50:47.764Z,47.49
2023-03-20T21:59:20.869Z,47.88
2023-03-20T22:02:02.351Z,47.78
2023-03-20T22:13:21.031Z,47.35
2023-03-20T22:15:54.928Z,48.16
2023-03-20T22:19:00.338Z,48.40
2023-03-20T22:24:31.058Z,47.77
2023-03-20T22:35:38.794Z,47.89
2023-03-20T22:38:41.270Z,48.47
2023-03-20T22:44:24.747Z,49.18
2023-03-20T22:46:14.231Z,50.08
2023-03-20T22:48:46.858Z,49.86
2023-03-20T22:51:13.893Z,49.33
2023-03-20T22:53:40.944Z,49.10
2023-03-20T22:56:08.269Z,48.93
2023-03-20T22:58:35.818Z,49.33
2023-03-20T23:01:02.986Z,50.26
2023-03-20T23:03:40.756Z,49.62
2023-03-20T23:06:19.931Z,49.49
2023-03-20T23:08:53.954Z,49.59
2023-03-20T23:11:24.805Z,50.78
2023-03-20T23:13:51.920Z,51.14
2023-03-20T23:16:19.555Z,50.47
2023-03-20T23:18:46.514Z,51.31
2023-03-20T23:21:35.958Z,50.97
2023-03-20T23:24:06.409Z,52.80
2023-03-20T23:26:33.914Z,51.73
2023-03-20T23:29:03.653Z,51.67
2023-03-20T23:31:31.193Z,51.98
2023-03-20T23:33:58.978Z,52.11
2023-03-20T23:36:36.446Z,53.63
2023-03-20T23:39:10.687Z,53.78
2023-03-20T23:44:31.020Z,53.59
2023-03-20T23:47:11.286Z,53.67
2023-03-20T23:49:48.921Z,53.22
2023-03-20T23:52:16.645Z,53.33
2023-03-20T23:54:49.199Z,55.16
2023-03-20T23:57:26.008Z,55.56
2023-03-20T23:59:55.370Z,54.51
